Time;durP1;ratioP1;P1;durP2;ratioP2;P2;SDS_P1;SDS_P2;PMS_P1;PMS_P2;Temp;Humidity;BMP_temperature;BMP_pressure;BME280_temperature;BME280_humidity;BME280_pressure;Samples;Min_cycle;Max_cycle;Signal;HPM_P1;HPM_P2
2022/08/17 00:02:24;;;;;;;8.00;5.93;;;;;;;;;;5072771;28;20099;-69
2022/08/17 00:04:50;;;;;;;6.70;6.00;;;;;;;;;;5072642;28;20032;-70
2022/08/17 00:07:16;;;;;;;10.98;6.53;;;;;;;;;;5072666;28;20032;-70
2022/08/17 00:09:42;;;;;;;6.90;6.20;;;;;;;;;;5072476;28;20127;-69
2022/08/17 00:12:09;;;;;;;7.25;6.53;;;;;;;;;;5072735;28;20024;-70
2022/08/17 00:14:35;;;;;;;8.18;6.63;;;;;;;;;;5072704;28;20020;-69
2022/08/17 00:17:03;;;;;;;7.00;6.30;;;;;;;;;;5073019;28;20035;-70
2022/08/17 00:19:31;;;;;;;10.32;7.57;;;;;;;;;;5071181;28;20117;-69
2022/08/17 00:21:59;;;;;;;8.85;6.50;;;;;;;;;;5072560;28;20082;-69
2022/08/17 00:24:27;;;;;;;7.45;6.65;;;;;;;;;;5072562;28;20360;-69
2022/08/17 00:26:53;;;;;;;7.43;5.78;;;;;;;;;;5082565;28;20027;-69
2022/08/17 00:29:19;;;;;;;8.38;6.28;;;;;;;;;;5076419;28;20020;-69
2022/08/17 00:31:45;;;;;;;10.70;6.30;;;;;;;;;;5072657;28;20035;-68
2022/08/17 00:34:11;;;;;;;6.50;5.88;;;;;;;;;;5082459;28;20030;-68
2022/08/17 00:36:37;;;;;;;8.60;6.50;;;;;;;;;;5075975;28;20403;-68
2022/08/17 00:39:04;;;;;;;11.75;6.47;;;;;;;;;;5072380;28;20032;-69
2022/08/17 00:41:30;;;;;;;7.72;6.75;;;;;;;;;;5072091;28;20081;-69
2022/08/17 00:43:58;;;;;;;7.55;6.35;;;;;;;;;;5072830;28;20048;-69
2022/08/17 00:46:31;;;;;;;6.95;5.60;;;;;;;;;;5072154;28;20025;-69
2022/08/17 00:48:58;;;;;;;9.77;6.32;;;;;;;;;;5072231;28;20116;-69
2022/08/17 00:51:27;;;;;;;6.43;5.70;;;;;;;;;;5072508;28;20031;-68
2022/08/17 00:54:02;;;;;;;7.85;6.10;;;;;;;;;;5075256;28;20475;-69
2022/08/17 00:56:31;;;;;;;7.68;6.70;;;;;;;;;;5075998;28;20085;-68
2022/08/17 00:58:57;;;;;;;10.10;6.45;;;;;;;;;;5075665;28;20036;-69
2022/08/17 01:01:24;;;;;;;8.45;6.10;;;;;;;;;;5075999;28;20545;-69
2022/08/17 01:03:51;;;;;;;7.50;6.00;;;;;;;;;;5075713;28;20391;-68
2022/08/17 01:06:17;;;;;;;9.65;6.45;;;;;;;;;;5075956;28;20024;-69
2022/08/17 01:08:43;;;;;;;6.57;5.75;;;;;;;;;;5075951;28;20379;-68
2022/08/17 01:11:09;;;;;;;7.45;5.80;;;;;;;;;;5076137;28;20371;-68
2022/08/17 01:13:40;;;;;;;7.03;6.32;;;;;;;;;;5075631;28;20021;-69
2022/08/17 01:16:09;;;;;;;8.00;6.53;;;;;;;;;;5075594;28;20021;-69
2022/08/17 01:18:35;;;;;;;7.93;6.15;;;;;;;;;;5075472;28;20020;-69
2022/08/17 01:21:08;;;;;;;8.10;5.95;;;;;;;;;;5075620;28;20024;-69
2022/08/17 01:23:35;;;;;;;6.22;5.63;;;;;;;;;;5075504;28;20017;-69
2022/08/17 01:26:01;;;;;;;7.35;6.65;;;;;;;;;;5075280;28;20032;-69
2022/08/17 01:28:30;;;;;;;7.90;6.22;;;;;;;;;;5075629;28;20048;-70
2022/08/17 01:30:57;;;;;;;6.85;6.10;;;;;;;;;;5075489;28;20021;-69
2022/08/17 01:33:23;;;;;;;8.52;6.32;;;;;;;;;;5078741;28;20094;-69
2022/08/17 01:35:49;;;;;;;7.10;6.40;;;;;;;;;;5085856;28;20131;-70
2022/08/17 01:38:30;;;;;;;7.35;6.30;;;;;;;;;;5074125;28;20097;-70
2022/08/17 01:41:03;;;;;;;7.13;6.43;;;;;;;;;;5073902;28;20368;-70
2022/08/17 01:43:32;;;;;;;7.72;6.93;;;;;;;;;;5075398;28;20460;-70
2022/08/17 01:46:00;;;;;;;10.88;7.03;;;;;;;;;;5074058;28;20067;-70
2022/08/17 01:48:29;;;;;;;8.40;7.05;;;;;;;;;;5072830;28;20032;-71
2022/08/17 01:50:55;;;;;;;12.15;9.18;;;;;;;;;;5075093;28;20020;-69
2022/08/17 01:53:28;;;;;;;12.02;8.90;;;;;;;;;;5074928;28;20517;-69
2022/08/17 01:56:02;;;;;;;15.35;10.68;;;;;;;;;;5075217;28;20031;-70
2022/08/17 01:58:36;;;;;;;14.93;8.70;;;;;;;;;;5074990;28;20025;-71
2022/08/17 02:01:04;;;;;;;10.18;8.95;;;;;;;;;;5074930;28;20048;-70
2022/08/17 02:03:31;;;;;;;11.57;9.25;;;;;;;;;;5074181;28;20047;-68
2022/08/17 02:05:57;;;;;;;11.48;8.70;;;;;;;;;;5074497;28;20051;-69
2022/08/17 02:08:24;;;;;;;11.70;8.50;;;;;;;;;;5074798;28;20111;-69
2022/08/17 02:10:50;;;;;;;9.40;7.90;;;;;;;;;;5074469;28;20328;-69
2022/08/17 02:13:18;;;;;;;9.10;7.55;;;;;;;;;;5074813;28;20532;-69
2022/08/17 02:15:44;;;;;;;9.60;6.57;;;;;;;;;;5074517;28;20103;-68
2022/08/17 02:18:11;;;;;;;8.98;6.18;;;;;;;;;;5074566;28;20026;-69
2022/08/17 02:20:38;;;;;;;6.78;6.07;;;;;;;;;;5074786;28;20032;-71
2022/08/17 02:23:07;;;;;;;6.75;6.05;;;;;;;;;;5072483;28;20662;-71
2022/08/17 02:25:42;;;;;;;7.57;6.57;;;;;;;;;;5072385;28;20032;-71
2022/08/17 02:28:08;;;;;;;7.53;6.43;;;;;;;;;;5074364;28;20059;-71
2022/08/17 02:30:35;;;;;;;8.27;6.53;;;;;;;;;;5073437;28;20134;-70
2022/08/17 02:33:02;;;;;;;7.28;6.53;;;;;;;;;;5074729;28;20066;-69
2022/08/17 02:35:28;;;;;;;9.00;6.55;;;;;;;;;;5087833;28;20039;-69
2022/08/17 02:37:54;;;;;;;7.25;6.20;;;;;;;;;;5074036;28;20037;-68
2022/08/17 02:40:20;;;;;;;10.40;6.88;;;;;;;;;;5073790;28;20036;-68
2022/08/17 02:42:47;;;;;;;6.68;5.97;;;;;;;;;;5074124;28;20024;-69
2022/08/17 02:45:19;;;;;;;9.52;6.88;;;;;;;;;;5073919;28;20355;-69
2022/08/17 02:47:46;;;;;;;6.47;5.88;;;;;;;;;;5073961;28;20023;-69
2022/08/17 02:50:14;;;;;;;7.22;6.45;;;;;;;;;;5073669;28;20418;-70
2022/08/17 02:52:41;;;;;;;8.07;6.55;;;;;;;;;;5073774;28;20021;-68
2022/08/17 02:55:11;;;;;;;8.85;6.60;;;;;;;;;;5073652;28;20024;-69
2022/08/17 02:57:37;;;;;;;8.30;7.28;;;;;;;;;;5073795;28;20020;-69
2022/08/17 03:00:13;;;;;;;8.48;6.95;;;;;;;;;;5073652;28;20517;-70
2022/08/17 03:02:40;;;;;;;7.82;6.22;;;;;;;;;;5073590;28;20040;-70
2022/08/17 03:05:07;;;;;;;17.15;6.65;;;;;;;;;;5073803;28;20032;-70
2022/08/17 03:07:33;;;;;;;9.95;6.45;;;;;;;;;;5073439;28;20025;-70
2022/08/17 03:10:00;;;;;;;14.55;6.57;;;;;;;;;;5073577;28;20074;-68
2022/08/17 03:12:31;;;;;;;6.43;5.82;;;;;;;;;;5073352;28;20078;-68
2022/08/17 03:14:58;;;;;;;9.63;6.30;;;;;;;;;;5073626;28;20146;-67
2022/08/17 03:17:24;;;;;;;10.25;6.63;;;;;;;;;;5073147;28;20020;-68
2022/08/17 03:19:51;;;;;;;6.88;6.07;;;;;;;;;;5081430;28;20154;-67
2022/08/17 03:22:17;;;;;;;9.02;5.95;;;;;;;;;;5079407;28;20020;-67
2022/08/17 03:24:43;;;;;;;9.30;6.57;;;;;;;;;;5073375;28;20382;-68
2022/08/17 03:27:09;;;;;;;9.77;6.43;;;;;;;;;;5073209;28;20021;-67
2022/08/17 03:29:35;;;;;;;9.85;6.38;;;;;;;;;;5073176;28;20021;-68
2022/08/17 03:32:09;;;;;;;9.88;6.32;;;;;;;;;;5073203;28;20024;-68
2022/08/17 03:34:35;;;;;;;6.47;5.80;;;;;;;;;;5086461;28;20028;-68
2022/08/17 03:37:01;;;;;;;10.35;6.45;;;;;;;;;;5073399;28;20119;-67
2022/08/17 03:39:27;;;;;;;6.38;5.70;;;;;;;;;;5072867;28;20123;-67
2022/08/17 03:41:54;;;;;;;9.60;6.15;;;;;;;;;;5073142;28;20506;-68
2022/08/17 03:44:20;;;;;;;11.15;6.10;;;;;;;;;;5071748;28;20032;-68
2022/08/17 03:57:45;;;;;;;8.23;6.57;;;;;;;;;;5073090;28;20039;-69
2022/08/17 04:00:11;;;;;;;9.95;5.63;;;;;;;;;;5072646;28;20037;-68
2022/08/17 04:02:38;;;;;;;10.27;6.65;;;;;;;;;;5072849;28;20020;-68
2022/08/17 04:05:04;;;;;;;9.13;6.63;;;;;;;;;;5072704;28;20028;-68
2022/08/17 04:07:30;;;;;;;9.40;6.40;;;;;;;;;;5072644;28;20135;-68
2022/08/17 04:09:58;;;;;;;8.55;6.80;;;;;;;;;;5072609;28;20486;-68
2022/08/17 04:12:24;;;;;;;8.13;6.68;;;;;;;;;;5075174;28;20020;-68
2022/08/17 04:14:51;;;;;;;10.55;6.32;;;;;;;;;;5083909;28;20042;-68
2022/08/17 04:17:17;;;;;;;7.75;6.60;;;;;;;;;;5072881;28;20024;-68
2022/08/17 04:19:43;;;;;;;7.93;6.50;;;;;;;;;;5072485;28;20086;-67
2022/08/17 04:22:09;;;;;;;8.23;7.00;;;;;;;;;;5072594;28;20036;-67
2022/08/17 04:24:35;;;;;;;8.23;6.60;;;;;;;;;;5072907;28;20071;-67
2022/08/17 04:27:01;;;;;;;10.02;7.00;;;;;;;;;;5072807;28;20029;-68
2022/08/17 04:29:27;;;;;;;9.77;6.72;;;;;;;;;;5076540;28;20446;-68
2022/08/17 04:31:53;;;;;;;8.32;6.55;;;;;;;;;;5076610;28;20056;-68
2022/08/17 04:34:19;;;;;;;10.90;7.32;;;;;;;;;;5087999;28;20096;-68
2022/08/17 04:36:46;;;;;;;12.18;8.27;;;;;;;;;;5078869;28;20044;-67
2022/08/17 04:39:12;;;;;;;10.15;8.73;;;;;;;;;;5076398;28;20077;-68
2022/08/17 04:44:23;;;;;;;13.05;8.73;;;;;;;;;;5076785;28;20039;-69
2022/08/17 04:46:49;;;;;;;13.80;9.20;;;;;;;;;;5076256;28;20040;-68
2022/08/17 04:49:16;;;;;;;13.77;11.52;;;;;;;;;;5076486;28;20378;-69
2022/08/17 04:51:44;;;;;;;17.98;9.85;;;;;;;;;;5076101;28;20094;-70
2022/08/17 04:54:12;;;;;;;13.13;10.23;;;;;;;;;;5075970;28;20021;-69
2022/08/17 04:56:38;;;;;;;18.75;12.32;;;;;;;;;;5076078;28;20028;-70
2022/08/17 04:59:11;;;;;;;13.05;10.52;;;;;;;;;;5075920;28;20032;-68
2022/08/17 05:01:38;;;;;;;13.23;9.57;;;;;;;;;;5076038;28;20035;-69
2022/08/17 05:04:07;;;;;;;11.32;8.75;;;;;;;;;;5075727;28;20179;-69
2022/08/17 05:06:33;;;;;;;12.15;8.30;;;;;;;;;;5076398;28;20025;-69
2022/08/17 05:08:59;;;;;;;12.02;7.97;;;;;;;;;;5075619;28;20490;-69
2022/08/17 05:11:26;;;;;;;10.95;7.28;;;;;;;;;;5075549;28;20032;-69
2022/08/17 05:13:54;;;;;;;10.40;7.22;;;;;;;;;;5075653;28;20060;-68
2022/08/17 05:16:21;;;;;;;9.82;6.75;;;;;;;;;;5075475;28;20475;-68
2022/08/17 05:18:47;;;;;;;12.60;6.90;;;;;;;;;;5088960;28;20028;-69
2022/08/17 05:21:14;;;;;;;10.25;7.57;;;;;;;;;;5076168;28;20386;-70
2022/08/17 05:23:41;;;;;;;8.23;6.78;;;;;;;;;;5075423;28;20117;-69
2022/08/17 05:26:07;;;;;;;9.65;6.90;;;;;;;;;;5075116;28;20109;-70
2022/08/17 05:28:33;;;;;;;9.25;6.70;;;;;;;;;;5075559;28;20029;-69
2022/08/17 05:31:00;;;;;;;9.63;6.03;;;;;;;;;;5075636;28;20024;-71
2022/08/17 05:33:28;;;;;;;9.63;6.35;;;;;;;;;;5079236;28;20020;-70
2022/08/17 05:35:57;;;;;;;6.53;5.80;;;;;;;;;;5084028;28;20449;-70
2022/08/17 05:38:24;;;;;;;7.88;6.10;;;;;;;;;;5075074;28;20029;-69
2022/08/17 05:40:50;;;;;;;12.13;7.55;;;;;;;;;;5075202;28;20035;-69
2022/08/17 05:43:18;;;;;;;8.48;5.93;;;;;;;;;;5075127;28;20035;-69
2022/08/17 05:45:55;;;;;;;8.80;6.75;;;;;;;;;;5075058;28;20023;-70
2022/08/17 05:48:22;;;;;;;12.25;6.47;;;;;;;;;;5075005;28;20056;-69
2022/08/17 05:51:08;;;;;;;10.68;6.75;;;;;;;;;;5074863;28;20028;-69
2022/08/17 05:53:46;;;;;;;9.18;6.80;;;;;;;;;;5067515;28;20033;-70
2022/08/17 05:56:24;;;;;;;15.52;7.20;;;;;;;;;;5074834;28;20028;-69
2022/08/17 05:58:57;;;;;;;8.55;5.72;;;;;;;;;;5074699;28;20051;-69
2022/08/17 06:01:23;;;;;;;8.05;6.13;;;;;;;;;;5074734;28;20029;-68
2022/08/17 06:03:58;;;;;;;8.75;5.93;;;;;;;;;;5074771;28;20017;-70
2022/08/17 06:06:24;;;;;;;12.70;6.40;;;;;;;;;;5074812;28;20487;-70
2022/08/17 06:08:56;;;;;;;7.05;5.20;;;;;;;;;;5074624;28;20021;-70
2022/08/17 06:11:27;;;;;;;5.60;4.97;;;;;;;;;;5074551;28;20098;-70
2022/08/17 06:14:09;;;;;;;8.95;6.18;;;;;;;;;;5074344;28;20077;-69
2022/08/17 06:16:38;;;;;;;8.95;6.25;;;;;;;;;;5074683;28;20024;-70
2022/08/17 06:19:16;;;;;;;7.85;5.85;;;;;;;;;;5073198;28;20028;-70
2022/08/17 06:21:44;;;;;;;7.80;5.82;;;;;;;;;;5074465;28;20036;-68
2022/08/17 06:24:14;;;;;;;10.35;6.45;;;;;;;;;;5074295;28;20027;-68
2022/08/17 06:26:44;;;;;;;7.47;5.82;;;;;;;;;;5074129;28;20547;-70
2022/08/17 06:29:13;;;;;;;8.52;6.82;;;;;;;;;;5074459;28;20523;-70
2022/08/17 06:31:39;;;;;;;14.52;6.10;;;;;;;;;;5074483;28;20025;-70
2022/08/17 06:34:08;;;;;;;7.93;5.25;;;;;;;;;;5083390;28;20027;-70
2022/08/17 06:36:38;;;;;;;8.85;6.10;;;;;;;;;;5078437;28;20430;-70
2022/08/17 06:39:11;;;;;;;7.93;5.55;;;;;;;;;;5074060;28;20025;-71
2022/08/17 06:41:44;;;;;;;7.32;5.82;;;;;;;;;;5073901;28;20028;-69
2022/08/17 06:44:20;;;;;;;8.15;5.50;;;;;;;;;;5074125;28;20032;-70
2022/08/17 06:46:50;;;;;;;7.20;5.75;;;;;;;;;;5074000;28;20024;-70
2022/08/17 06:49:25;;;;;;;10.33;5.90;;;;;;;;;;5072621;28;20028;-70
2022/08/17 06:52:02;;;;;;;6.60;5.50;;;;;;;;;;5073021;28;20029;-68
2022/08/17 06:54:47;;;;;;;6.20;5.50;;;;;;;;;;5073883;28;20035;-69
2022/08/17 06:57:19;;;;;;;11.95;6.05;;;;;;;;;;5073760;28;20024;-69
2022/08/17 07:00:06;;;;;;;13.77;8.73;;;;;;;;;;5073577;28;20047;-70
2022/08/17 07:02:50;;;;;;;8.90;6.20;;;;;;;;;;5073576;28;20035;-70
2022/08/17 07:05:18;;;;;;;8.90;6.07;;;;;;;;;;5073811;28;20025;-70
2022/08/17 07:08:02;;;;;;;7.57;6.20;;;;;;;;;;5073623;28;20044;-70
2022/08/17 07:10:35;;;;;;;8.15;6.40;;;;;;;;;;5073199;28;20028;-69
2022/08/17 07:13:20;;;;;;;7.70;5.78;;;;;;;;;;5073237;28;20476;-69
2022/08/17 07:15:49;;;;;;;9.77;5.93;;;;;;;;;;5073197;28;20040;-69
2022/08/17 07:18:15;;;;;;;10.48;6.43;;;;;;;;;;5073317;28;20033;-70
2022/08/17 07:20:44;;;;;;;7.85;6.68;;;;;;;;;;5072872;28;20113;-69
2022/08/17 07:23:20;;;;;;;11.90;5.90;;;;;;;;;;5073212;28;20028;-69
2022/08/17 07:25:47;;;;;;;8.13;5.85;;;;;;;;;;5072958;28;20062;-69
2022/08/17 07:28:14;;;;;;;10.85;6.45;;;;;;;;;;5073047;28;20058;-70
2022/08/17 07:30:47;;;;;;;9.68;5.88;;;;;;;;;;5086718;28;20069;-70
2022/08/17 07:33:20;;;;;;;7.47;6.03;;;;;;;;;;5079226;28;20016;-69
2022/08/17 07:35:48;;;;;;;8.20;5.57;;;;;;;;;;5083835;28;20044;-69
2022/08/17 07:38:16;;;;;;;9.55;5.95;;;;;;;;;;5088435;28;20066;-70
2022/08/17 07:40:47;;;;;;;8.30;5.72;;;;;;;;;;5085207;28;20063;-70
2022/08/17 07:43:21;;;;;;;8.40;6.53;;;;;;;;;;5072711;28;20032;-69
2022/08/17 07:48:39;;;;;;;11.02;6.80;;;;;;;;;;5075587;28;20039;-70
2022/08/17 07:51:17;;;;;;;8.48;6.25;;;;;;;;;;5073056;28;20020;-69
2022/08/17 07:53:44;;;;;;;9.40;6.35;;;;;;;;;;5071465;28;20035;-70
2022/08/17 07:56:14;;;;;;;9.82;6.10;;;;;;;;;;5072868;28;20019;-70
2022/08/17 07:58:41;;;;;;;8.90;6.32;;;;;;;;;;5072652;28;20540;-70
2022/08/17 08:01:11;;;;;;;10.30;6.57;;;;;;;;;;5071437;28;20032;-69
2022/08/17 08:03:45;;;;;;;11.75;7.22;;;;;;;;;;5072721;28;20039;-68
2022/08/17 08:06:23;;;;;;;12.32;7.40;;;;;;;;;;5073217;28;20030;-70
2022/08/17 08:08:51;;;;;;;6.78;5.78;;;;;;;;;;5072470;28;20029;-69
2022/08/17 08:11:28;;;;;;;9.40;6.50;;;;;;;;;;5073128;28;20020;-70
2022/08/17 08:13:54;;;;;;;7.22;6.15;;;;;;;;;;5072458;28;20024;-70
2022/08/17 08:16:25;;;;;;;8.73;6.90;;;;;;;;;;5072623;28;20029;-70
2022/08/17 08:18:54;;;;;;;7.65;6.25;;;;;;;;;;5072499;28;20016;-70
2022/08/17 08:21:23;;;;;;;8.23;6.30;;;;;;;;;;5072657;28;20028;-71
2022/08/17 08:23:52;;;;;;;8.20;6.47;;;;;;;;;;5072579;28;20025;-70
2022/08/17 08:26:27;;;;;;;9.23;5.53;;;;;;;;;;5072102;28;20094;-70
2022/08/17 08:29:19;;;;;;;8.05;6.20;;;;;;;;;;5072507;28;20020;-70
2022/08/17 08:31:51;;;;;;;7.82;5.65;;;;;;;;;;5072537;28;20020;-70
2022/08/17 08:34:29;;;;;;;10.13;6.63;;;;;;;;;;5083527;28;20032;-70
2022/08/17 08:37:02;;;;;;;10.05;5.80;;;;;;;;;;5073258;28;20068;-70
2022/08/17 08:39:28;;;;;;;9.68;5.53;;;;;;;;;;5072235;28;20051;-70
2022/08/17 08:41:54;;;;;;;8.15;7.35;;;;;;;;;;5072293;28;20020;-70
2022/08/17 08:44:35;;;;;;;7.18;5.78;;;;;;;;;;5072226;28;20032;-69
2022/08/17 08:47:13;;;;;;;8.25;5.78;;;;;;;;;;5070632;28;20028;-71
2022/08/17 08:49:51;;;;;;;7.35;5.25;;;;;;;;;;5072358;28;20028;-70
2022/08/17 08:52:21;;;;;;;9.43;6.00;;;;;;;;;;5072238;28;20021;-70
2022/08/17 08:54:51;;;;;;;11.75;7.70;;;;;;;;;;5071962;28;20483;-70
2022/08/17 08:57:20;;;;;;;8.25;5.35;;;;;;;;;;5072098;28;20070;-70
2022/08/17 08:59:55;;;;;;;12.27;7.53;;;;;;;;;;5072058;28;20113;-70
2022/08/17 09:02:40;;;;;;;14.95;5.90;;;;;;;;;;5072087;28;20013;-70
2022/08/17 09:05:06;;;;;;;11.38;5.97;;;;;;;;;;5072038;28;20111;-69
2022/08/17 09:07:45;;;;;;;8.15;5.97;;;;;;;;;;5070812;28;20437;-70
2022/08/17 09:10:40;;;;;;;5.93;5.15;;;;;;;;;;5070814;28;20033;-71
2022/08/17 09:13:15;;;;;;;8.45;5.63;;;;;;;;;;5038454;28;20075;-71
2022/08/17 09:16:02;;;;;;;9.98;5.18;;;;;;;;;;5053600;28;20029;-70
2022/08/17 09:18:37;;;;;;;7.18;5.63;;;;;;;;;;5053513;28;20037;-70
2022/08/17 09:21:14;;;;;;;9.65;6.95;;;;;;;;;;5053094;28;20147;-70
2022/08/17 09:23:41;;;;;;;8.13;6.00;;;;;;;;;;5053314;28;20108;-70
2022/08/17 09:26:13;;;;;;;6.90;5.18;;;;;;;;;;5053333;28;20059;-70
2022/08/17 09:28:43;;;;;;;7.50;5.30;;;;;;;;;;5053296;28;20029;-70
2022/08/17 09:31:10;;;;;;;7.20;5.55;;;;;;;;;;5053357;28;20108;-70
2022/08/17 09:33:40;;;;;;;7.32;5.90;;;;;;;;;;5053193;28;20032;-70
2022/08/17 09:36:11;;;;;;;7.18;5.25;;;;;;;;;;5053047;28;20084;-70
2022/08/17 09:38:58;;;;;;;12.95;6.60;;;;;;;;;;5017996;28;20018;-70
2022/08/17 09:41:45;;;;;;;8.52;5.78;;;;;;;;;;5029762;28;20044;-71
2022/08/17 09:44:22;;;;;;;7.90;5.97;;;;;;;;;;5052872;28;20411;-69
2022/08/17 09:47:15;;;;;;;7.03;5.40;;;;;;;;;;5052905;28;20025;-71
2022/08/17 09:49:48;;;;;;;7.38;5.65;;;;;;;;;;5063602;28;20071;-70
2022/08/17 09:52:22;;;;;;;10.20;5.07;;;;;;;;;;5074866;28;20013;-71
2022/08/17 09:54:50;;;;;;;9.23;6.13;;;;;;;;;;5074963;28;20047;-70
2022/08/17 09:57:22;;;;;;;6.85;5.68;;;;;;;;;;5073204;28;20119;-71
2022/08/17 10:02:54;;;;;;;8.95;6.15;;;;;;;;;;5074781;28;20074;-70
2022/08/17 10:05:31;;;;;;;6.88;5.22;;;;;;;;;;5074873;28;20147;-70
2022/08/17 10:08:08;;;;;;;7.85;5.80;;;;;;;;;;5073522;28;20475;-70
2022/08/17 10:10:34;;;;;;;5.43;4.93;;;;;;;;;;5074302;28;20035;-69
2022/08/17 10:13:12;;;;;;;7.18;5.55;;;;;;;;;;5074534;28;20055;-70
2022/08/17 10:15:48;;;;;;;7.47;5.85;;;;;;;;;;5072668;28;20123;-70
2022/08/17 10:18:34;;;;;;;6.57;5.57;;;;;;;;;;5074550;28;20017;-70
2022/08/17 10:26:34;;;;;;;7.40;5.18;;;;;;;;;;5073570;28;20031;-70
2022/08/17 10:29:11;;;;;;;8.57;5.28;;;;;;;;;;5074221;28;20032;-70
2022/08/17 10:31:40;;;;;;;7.70;5.07;;;;;;;;;;5074272;28;20027;-70
2022/08/17 10:34:17;;;;;;;7.88;5.57;;;;;;;;;;5083392;28;20020;-70
2022/08/17 10:36:47;;;;;;;7.03;5.18;;;;;;;;;;5076868;28;20055;-70
